createdAt,value
2023-05-15T00:00:44.448Z,97077.06
2023-05-15T00:03:12.527Z,97095.19
2023-05-15T00:05:40.551Z,97111.25
2023-05-15T00:08:08.334Z,97136.91
2023-05-15T00:10:38.301Z,97183.75
2023-05-15T00:13:07.223Z,97198.09
2023-05-15T00:15:35.055Z,97239.41
2023-05-15T00:18:02.937Z,97264.47
2023-05-15T00:20:30.787Z,97273.44
2023-05-15T00:22:58.607Z,97297.69
2023-05-15T00:25:26.553Z,97308.75
2023-05-15T00:27:56.014Z,97319.91
2023-05-15T00:30:24.022Z,97333.16
2023-05-15T00:32:51.921Z,97344.59
2023-05-15T00:35:19.795Z,97346.38
2023-05-15T00:37:47.757Z,97361.09
2023-05-15T00:40:17.437Z,97367.19
2023-05-15T00:42:47.197Z,97380.38
2023-05-15T00:45:16.397Z,97383.97
2023-05-15T00:47:44.278Z,97382.28
2023-05-15T00:50:12.237Z,97385.84
2023-05-15T00:52:40.080Z,97384.09
2023-05-15T00:55:08.465Z,97378.00
2023-05-15T00:57:36.356Z,97383.19
2023-05-15T01:00:07.793Z,97374.47
2023-05-15T01:02:37.000Z,97367.75
2023-05-15T01:05:04.930Z,97377.72
2023-05-15T01:07:33.235Z,97362.28
2023-05-15T01:10:01.040Z,97342.00
2023-05-15T01:12:28.993Z,97345.09
2023-05-15T01:14:57.701Z,97360.34
2023-05-15T01:17:25.528Z,97358.84
2023-05-15T01:19:56.464Z,97373.22
2023-05-15T01:22:30.363Z,97366.19
2023-05-15T01:25:25.483Z,97406.16
2023-05-15T01:27:55.534Z,97428.88
2023-05-15T01:30:26.577Z,97434.81
2023-05-15T01:32:55.303Z,97415.84
2023-05-15T01:35:24.962Z,97401.00
2023-05-15T01:38:03.482Z,97445.50
2023-05-15T01:40:31.296Z,97474.50
2023-05-15T01:43:01.787Z,97470.44
2023-05-15T01:45:29.633Z,97459.28
2023-05-15T01:47:57.474Z,97464.63
2023-05-15T01:50:25.433Z,97468.38
2023-05-15T01:52:53.545Z,97449.16
2023-05-15T01:55:21.772Z,97420.03
2023-05-15T01:57:49.864Z,97427.63
2023-05-15T02:00:19.176Z,97407.97
2023-05-15T02:02:47.249Z,97398.81
2023-05-15T02:05:15.350Z,97375.31
2023-05-15T02:07:43.226Z,97355.16
2023-05-15T02:10:11.138Z,97367.41
2023-05-15T02:12:38.915Z,97364.53
2023-05-15T02:15:07.258Z,97390.78
2023-05-15T02:17:36.500Z,97379.50
2023-05-15T02:20:05.058Z,97365.81
2023-05-15T02:22:32.894Z,97368.47
2023-05-15T02:25:01.287Z,97367.03
2023-05-15T02:27:29.593Z,97380.91
2023-05-15T02:30:01.810Z,97426.34
2023-05-15T02:32:30.670Z,97454.88
2023-05-15T02:35:02.552Z,97462.63
2023-05-15T02:37:32.542Z,97444.16
2023-05-15T02:40:00.704Z,97416.03
2023-05-15T02:42:28.613Z,97408.38
2023-05-15T02:44:56.690Z,97401.53
2023-05-15T02:47:24.586Z,97373.84
2023-05-15T02:49:52.749Z,97355.75
2023-05-15T02:52:21.952Z,97348.53
2023-05-15T02:54:49.813Z,97359.47
2023-05-15T02:57:17.569Z,97350.94
2023-05-15T02:59:45.337Z,97359.25
2023-05-15T03:02:13.135Z,97335.53
2023-05-15T03:04:41.287Z,97336.13
2023-05-15T03:07:09.165Z,97319.16
2023-05-15T03:09:38.391Z,97336.41
2023-05-15T03:12:06.497Z,97334.19
2023-05-15T03:14:34.282Z,97329.81
2023-05-15T03:17:02.244Z,97309.88
2023-05-15T03:19:30.075Z,97302.00
2023-05-15T03:21:57.871Z,97305.03
2023-05-15T03:24:25.761Z,97310.91
2023-05-15T03:26:55.013Z,97306.16
2023-05-15T03:29:22.774Z,97320.16
2023-05-15T03:31:50.560Z,97325.34
2023-05-15T03:34:18.416Z,97322.09
2023-05-15T03:36:46.210Z,97309.22
2023-05-15T03:39:14.028Z,97303.63
2023-05-15T03:41:41.849Z,97327.09
2023-05-15T03:44:11.009Z,97308.88
2023-05-15T03:46:40.797Z,97329.66
2023-05-15T03:49:11.960Z,97332.22
2023-05-15T03:51:39.755Z,97328.44
2023-05-15T03:54:07.676Z,97323.88
2023-05-15T03:56:35.604Z,97320.94
2023-05-15T03:59:03.536Z,97324.91
2023-05-15T04:01:34.541Z,97304.84
2023-05-15T04:04:07.075Z,97303.41
2023-05-15T04:06:35.008Z,97322.00
2023-05-15T04:09:02.741Z,97332.53
2023-05-15T04:11:30.583Z,97353.84
2023-05-15T04:13:58.318Z,97370.50
2023-05-15T04:16:26.174Z,97370.53
2023-05-15T04:18:55.459Z,97370.53
2023-05-15T04:21:23.291Z,97375.78
2023-05-15T04:23:51.153Z,97399.88
2023-05-15T04:26:18.989Z,97406.44
2023-05-15T04:29:00.112Z,97406.56
2023-05-15T04:31:31.594Z,97413.81
2023-05-15T04:34:00.952Z,97427.91
2023-05-15T04:36:28.802Z,97443.34
2023-05-15T04:38:56.655Z,97460.16
2023-05-15T04:41:24.418Z,97471.50
2023-05-15T04:43:52.284Z,97455.44
2023-05-15T04:46:20.122Z,97477.06
2023-05-15T04:48:48.282Z,97507.84
2023-05-15T04:51:17.517Z,97508.53
2023-05-15T04:53:45.395Z,97504.63
2023-05-15T04:56:13.230Z,97507.75
2023-05-15T04:58:41.088Z,97540.50
2023-05-15T05:01:08.962Z,97546.59
2023-05-15T05:03:36.868Z,97568.81
2023-05-15T05:06:04.749Z,97579.41
2023-05-15T05:08:34.119Z,97579.03
2023-05-15T05:11:01.887Z,97579.91
2023-05-15T05:13:29.698Z,97587.78
2023-05-15T05:15:58.603Z,97591.91
2023-05-15T05:18:26.724Z,97612.09
2023-05-15T05:21:01.277Z,97639.06
2023-05-15T05:23:29.597Z,97634.16
2023-05-15T05:25:59.061Z,97655.72
2023-05-15T05:28:28.828Z,97661.78
2023-05-15T05:30:57.113Z,97646.81
2023-05-15T05:33:26.187Z,97674.09
2023-05-15T05:35:54.046Z,97645.28
2023-05-15T05:38:21.802Z,97642.19
2023-05-15T05:40:49.669Z,97642.44
2023-05-15T05:43:18.910Z,97645.16
2023-05-15T05:45:46.684Z,97641.06
2023-05-15T05:48:14.530Z,97635.66
2023-05-15T05:50:42.457Z,97623.72
2023-05-15T05:53:10.213Z,97621.81
2023-05-15T05:55:38.005Z,97617.97
2023-05-15T05:58:11.808Z,97610.88
2023-05-15T06:00:47.486Z,97592.88
2023-05-15T06:03:15.446Z,97602.19
2023-05-15T06:05:43.554Z,97604.84
2023-05-15T06:08:11.441Z,97577.38
2023-05-15T06:10:39.190Z,97574.38
2023-05-15T06:13:06.929Z,97561.84
2023-05-15T06:15:34.710Z,97535.91
2023-05-15T06:18:03.943Z,97525.38
2023-05-15T06:20:31.812Z,97538.97
2023-05-15T06:22:59.594Z,97536.38
2023-05-15T06:25:27.376Z,97522.91
2023-05-15T06:27:55.851Z,97511.16
2023-05-15T06:30:23.758Z,97466.34
2023-05-15T06:32:51.679Z,97462.94
2023-05-15T06:35:20.937Z,97483.63
2023-05-15T06:37:50.531Z,97476.03
2023-05-15T06:40:18.281Z,97451.09
2023-05-15T06:42:47.274Z,97435.00
2023-05-15T06:45:15.100Z,97443.53
2023-05-15T06:47:42.972Z,97419.88
2023-05-15T06:50:11.558Z,97402.91
2023-05-15T06:52:40.697Z,97414.75
2023-05-15T06:55:08.738Z,97415.31
2023-05-15T06:57:36.508Z,97399.53
2023-05-15T07:00:05.442Z,97393.19
2023-05-15T07:02:33.230Z,97374.63
2023-05-15T07:05:01.071Z,97358.00
2023-05-15T07:07:28.951Z,97344.03
2023-05-15T07:09:58.170Z,97329.03
2023-05-15T07:12:25.937Z,97307.03
2023-05-15T07:14:53.699Z,97314.00
2023-05-15T07:17:21.503Z,97297.28
2023-05-15T07:19:49.412Z,97272.22
2023-05-15T07:22:17.190Z,97244.13
2023-05-15T07:24:45.159Z,97223.50
2023-05-15T07:27:14.413Z,97200.75
2023-05-15T07:29:42.263Z,97183.59
2023-05-15T07:32:10.045Z,97167.19
2023-05-15T07:34:37.878Z,97142.44
2023-05-15T07:37:06.010Z,97124.06
2023-05-15T07:39:33.887Z,97127.66
2023-05-15T07:42:01.745Z,97077.53
2023-05-15T07:44:30.959Z,97065.78
2023-05-15T07:46:58.822Z,97029.69
2023-05-15T07:49:26.671Z,97004.75
2023-05-15T07:51:54.515Z,96976.13
2023-05-15T07:54:22.406Z,96958.66
2023-05-15T07:56:50.296Z,96941.22
2023-05-15T07:59:18.116Z,96941.00
2023-05-15T08:01:47.408Z,96924.50
2023-05-15T08:04:15.729Z,96909.50
2023-05-15T08:06:44.656Z,96897.50
2023-05-15T08:09:12.961Z,96883.41
2023-05-15T08:11:40.873Z,96878.88
2023-05-15T08:14:09.324Z,96873.47
2023-05-15T08:16:38.426Z,96873.09
2023-05-15T08:19:08.135Z,96859.81
2023-05-15T08:21:36.047Z,96860.97
2023-05-15T08:24:03.941Z,96847.75
2023-05-15T08:26:31.811Z,96849.00
2023-05-15T08:28:59.595Z,96834.78
2023-05-15T08:31:27.593Z,96818.72
2023-05-15T08:33:55.471Z,96817.91
2023-05-15T08:36:24.834Z,96806.94
2023-05-15T08:38:52.795Z,96785.78
2023-05-15T08:41:32.906Z,96768.13
2023-05-15T08:44:08.057Z,96763.97
2023-05-15T08:46:36.461Z,96761.63
2023-05-15T08:49:04.858Z,96746.50
2023-05-15T08:51:34.103Z,96749.88
2023-05-15T08:54:01.970Z,96738.66
2023-05-15T08:56:29.790Z,96730.69
2023-05-15T08:58:57.651Z,96729.19
2023-05-15T09:01:25.443Z,96718.31
2023-05-15T09:03:53.351Z,96716.25
2023-05-15T09:06:21.266Z,96706.31
2023-05-15T09:08:50.453Z,96717.28
2023-05-15T09:11:18.293Z,96718.31
2023-05-15T09:13:46.122Z,96712.66
2023-05-15T09:16:14.037Z,96715.53
2023-05-15T09:18:41.963Z,96718.44
2023-05-15T09:21:25.948Z,96719.72
2023-05-15T09:23:55.886Z,96712.88
2023-05-15T09:26:23.730Z,96706.78
2023-05-15T09:28:51.595Z,96698.38
2023-05-15T09:31:23.559Z,96684.63
2023-05-15T09:33:51.499Z,96685.16
2023-05-15T09:36:22.567Z,96668.56
2023-05-15T09:38:50.524Z,96680.59
2023-05-15T09:41:19.821Z,96673.19
2023-05-15T09:43:47.736Z,96688.53
2023-05-15T09:46:17.501Z,96695.59
2023-05-15T09:48:45.524Z,96702.38
2023-05-15T09:51:16.032Z,96705.84
2023-05-15T09:53:43.962Z,96705.06
2023-05-15T09:56:11.842Z,96705.38
2023-05-15T09:58:42.623Z,96708.97
2023-05-15T10:01:11.599Z,96712.97
2023-05-15T10:03:40.252Z,96699.41
2023-05-15T10:06:08.452Z,96707.72
2023-05-15T10:08:38.830Z,96699.91
2023-05-15T10:11:08.913Z,96682.63
2023-05-15T10:13:41.073Z,96676.53
2023-05-15T10:16:10.594Z,96667.22
2023-05-15T10:18:41.153Z,96674.72
2023-05-15T10:21:09.375Z,96676.81
2023-05-15T10:23:37.758Z,96675.94
2023-05-15T10:26:08.794Z,96699.59
2023-05-15T10:28:36.894Z,96708.25
2023-05-15T10:31:04.945Z,96710.34
2023-05-15T10:33:34.342Z,96708.16
2023-05-15T10:36:02.465Z,96713.94
2023-05-15T10:38:31.679Z,96704.34
2023-05-15T10:41:16.659Z,96684.25
2023-05-15T10:43:45.451Z,96697.41
2023-05-15T10:46:13.421Z,96675.72
2023-05-15T10:48:42.999Z,96660.84
2023-05-15T10:51:15.464Z,96646.53
2023-05-15T10:53:43.666Z,96638.19
2023-05-15T10:56:13.796Z,96641.44
2023-05-15T10:58:46.447Z,96650.53
2023-05-15T11:01:25.990Z,96660.72
2023-05-15T11:03:57.420Z,96666.59
2023-05-15T11:06:31.579Z,96678.72
2023-05-15T11:09:30.945Z,96675.25
2023-05-15T11:12:00.427Z,96679.41
2023-05-15T11:14:28.469Z,96703.81
2023-05-15T11:17:00.438Z,96696.63
2023-05-15T11:19:34.918Z,96681.59
2023-05-15T11:22:03.250Z,96684.81
2023-05-15T11:24:31.248Z,96675.59
2023-05-15T11:27:04.917Z,96676.03
2023-05-15T11:29:32.785Z,96671.56
2023-05-15T11:32:02.715Z,96676.09
2023-05-15T11:34:31.501Z,96675.63
2023-05-15T11:37:01.223Z,96665.16
2023-05-15T11:39:29.190Z,96681.66
2023-05-15T11:41:58.573Z,96678.25
2023-05-15T11:44:27.123Z,96669.13
2023-05-15T11:46:55.118Z,96671.69
2023-05-15T11:49:26.667Z,96672.72
2023-05-15T11:51:54.505Z,96685.00
2023-05-15T11:54:24.260Z,96682.88
2023-05-15T11:56:52.332Z,96671.72
2023-05-15T11:59:20.266Z,96693.59
2023-05-15T12:01:48.373Z,96698.66
2023-05-15T12:04:16.465Z,96701.31
2023-05-15T12:06:47.427Z,96706.25
2023-05-15T12:09:17.622Z,96697.03
2023-05-15T12:11:50.715Z,96693.81
2023-05-15T12:14:20.742Z,96695.16
2023-05-15T12:16:48.797Z,96686.25
2023-05-15T12:19:19.109Z,96683.09
2023-05-15T12:21:49.797Z,96677.84
2023-05-15T12:24:17.771Z,96667.00
2023-05-15T12:26:46.798Z,96664.00
2023-05-15T12:29:16.130Z,96652.81
2023-05-15T12:31:45.567Z,96657.41
2023-05-15T12:34:16.205Z,96656.78
2023-05-15T12:36:44.217Z,96654.13
2023-05-15T12:39:12.184Z,96656.38
2023-05-15T12:41:40.183Z,96666.59
2023-05-15T12:44:10.706Z,96672.19
2023-05-15T12:46:40.174Z,96680.66
2023-05-15T12:49:08.169Z,96683.75
2023-05-15T12:51:36.054Z,96681.13
2023-05-15T12:54:05.255Z,96690.91
2023-05-15T12:56:33.173Z,96692.59
2023-05-15T12:59:01.117Z,96695.34
2023-05-15T13:01:32.188Z,96689.47
2023-05-15T13:04:04.753Z,96677.28
2023-05-15T13:06:42.417Z,96672.22
2023-05-15T13:09:14.606Z,96669.72
2023-05-15T13:11:44.642Z,96669.84
2023-05-15T13:14:17.512Z,96656.88
2023-05-15T13:16:46.454Z,96668.53
2023-05-15T13:19:17.111Z,96664.44
2023-05-15T13:21:45.708Z,96659.53
2023-05-15T13:24:13.743Z,96652.38
2023-05-15T13:26:41.970Z,96651.31
2023-05-15T13:29:09.864Z,96656.72
2023-05-15T13:31:40.852Z,96651.53
2023-05-15T13:34:11.678Z,96644.94
2023-05-15T13:36:41.158Z,96633.16
2023-05-15T13:39:09.340Z,96627.78
2023-05-15T13:41:37.884Z,96619.63
2023-05-15T13:44:06.501Z,96621.97
2023-05-15T13:46:34.624Z,96621.97
2023-05-15T13:49:02.490Z,96616.50
2023-05-15T13:51:31.605Z,96626.13
2023-05-15T13:54:00.894Z,96619.94
2023-05-15T14:00:07.352Z,96631.31
2023-05-15T14:02:35.337Z,96633.75
2023-05-15T14:05:04.074Z,96634.47
2023-05-15T14:07:32.016Z,96641.63
2023-05-15T14:10:01.476Z,96646.09
2023-05-15T14:12:29.418Z,96638.53
2023-05-15T14:14:58.413Z,96644.91
2023-05-15T14:17:26.490Z,96637.47
2023-05-15T14:19:57.424Z,96633.44
2023-05-15T14:22:25.470Z,96625.06
2023-05-15T14:24:53.413Z,96630.59
2023-05-15T14:27:22.734Z,96625.97
2023-05-15T14:29:53.810Z,96628.34
2023-05-15T14:32:21.835Z,96620.72
2023-05-15T14:34:49.787Z,96617.78
2023-05-15T14:37:17.655Z,96622.88
2023-05-15T14:40:16.545Z,96634.03
2023-05-15T14:46:39.621Z,96651.38
2023-05-15T14:49:07.471Z,96652.38
2023-05-15T14:51:35.470Z,96665.03
2023-05-15T14:54:09.854Z,96648.31
2023-05-15T14:56:37.801Z,96643.59
2023-05-15T14:59:10.943Z,96639.22
2023-05-15T15:01:40.287Z,96654.94
2023-05-15T15:04:08.421Z,96648.38
2023-05-15T15:06:57.759Z,96649.53
2023-05-15T15:09:28.357Z,96655.00
2023-05-15T15:12:04.621Z,96648.22
2023-05-15T15:14:32.598Z,96637.41
2023-05-15T15:17:04.820Z,96637.53
2023-05-15T15:19:32.711Z,96642.25
2023-05-15T15:22:00.646Z,96638.72
2023-05-15T15:24:29.340Z,96645.81
2023-05-15T15:26:57.147Z,96629.53
2023-05-15T15:29:24.978Z,96631.75
2023-05-15T15:31:52.919Z,96617.25
2023-05-15T15:34:22.229Z,96618.69
2023-05-15T15:36:50.016Z,96629.97
2023-05-15T15:39:17.884Z,96650.00
2023-05-15T15:41:45.697Z,96656.81
2023-05-15T15:44:13.537Z,96590.31
2023-05-15T15:46:41.345Z,96521.34
2023-05-15T15:49:09.228Z,96491.97
2023-05-15T15:51:38.487Z,96484.06
2023-05-15T15:54:06.411Z,96512.53
2023-05-15T15:56:34.252Z,96531.06
2023-05-15T15:59:02.188Z,96574.41
2023-05-15T16:01:30.099Z,96584.84
2023-05-15T16:03:58.005Z,96596.03
2023-05-15T16:06:25.929Z,96592.75
2023-05-15T16:08:55.168Z,96599.13
2023-05-15T16:11:24.065Z,96601.56
2023-05-15T16:13:52.017Z,96617.84
2023-05-15T16:16:19.958Z,96616.63
2023-05-15T16:18:47.925Z,96615.81
2023-05-15T16:21:16.049Z,96623.56
2023-05-15T16:23:43.882Z,96621.22
2023-05-15T16:26:13.290Z,96626.50
2023-05-15T16:28:41.305Z,96647.97
2023-05-15T16:31:09.711Z,96631.94
2023-05-15T16:33:37.618Z,96654.34
2023-05-15T16:36:06.132Z,96655.38
2023-05-15T16:38:33.938Z,96656.66
2023-05-15T16:41:02.290Z,96654.81
2023-05-15T16:43:31.634Z,96661.63
2023-05-15T16:46:00.097Z,96667.75
2023-05-15T16:48:28.188Z,96670.72
2023-05-15T16:50:56.239Z,96676.97
2023-05-15T16:53:24.261Z,96666.25
2023-05-15T16:55:54.183Z,96671.47
2023-05-15T16:58:22.055Z,96674.78
2023-05-15T17:00:51.400Z,96675.59
2023-05-15T17:03:19.744Z,96672.72
2023-05-15T17:05:49.946Z,96671.47
2023-05-15T17:08:20.624Z,96657.47
2023-05-15T17:10:48.505Z,96663.34
2023-05-15T17:13:16.539Z,96663.03
2023-05-15T17:15:47.247Z,96675.75
2023-05-15T17:18:17.045Z,96671.00
2023-05-15T17:20:46.733Z,96676.16
2023-05-15T17:23:14.608Z,96677.22
2023-05-15T17:25:42.524Z,96669.56
2023-05-15T17:28:10.449Z,96661.28
2023-05-15T17:30:38.428Z,96669.13
2023-05-15T17:33:06.330Z,96671.97
2023-05-15T17:35:35.723Z,96675.03
2023-05-15T17:38:03.885Z,96665.66
2023-05-15T17:40:34.745Z,96635.41
2023-05-15T17:43:03.774Z,96651.03
2023-05-15T17:45:33.785Z,96656.91
2023-05-15T17:48:03.887Z,96644.22
2023-05-15T17:50:31.953Z,96638.78
2023-05-15T17:53:04.310Z,96660.25
2023-05-15T17:55:34.273Z,96665.56
2023-05-15T17:58:03.163Z,96669.63
2023-05-15T18:00:34.143Z,96670.06
2023-05-15T18:03:02.212Z,96684.22
2023-05-15T18:05:30.100Z,96681.16
2023-05-15T18:08:02.646Z,96691.53
2023-05-15T18:10:32.428Z,96707.41
2023-05-15T18:13:00.807Z,96695.44
2023-05-15T18:15:29.005Z,96707.41
2023-05-15T18:17:57.392Z,96729.69
2023-05-15T18:20:26.063Z,96727.25
2023-05-15T18:22:54.022Z,96727.59
2023-05-15T18:25:27.394Z,96736.34
2023-05-15T18:27:59.716Z,96709.75
2023-05-15T18:30:28.936Z,96728.03
2023-05-15T18:32:58.981Z,96741.88
2023-05-15T18:35:27.528Z,96750.50
2023-05-15T18:37:57.026Z,96749.16
2023-05-15T18:40:26.488Z,96745.22
2023-05-15T18:42:58.797Z,96749.81
2023-05-15T18:45:28.626Z,96770.38
2023-05-15T18:47:58.101Z,96754.84
2023-05-15T18:50:26.214Z,96777.84
2023-05-15T18:52:57.066Z,96803.56
2023-05-15T18:55:34.306Z,96817.03
2023-05-15T18:58:04.092Z,96829.31
2023-05-15T19:00:39.646Z,96838.25
2023-05-15T19:03:10.588Z,96828.22
2023-05-15T19:05:38.669Z,96823.84
2023-05-15T19:08:10.889Z,96839.75
2023-05-15T19:10:39.019Z,96851.69
2023-05-15T19:13:08.110Z,96868.56
2023-05-15T19:15:37.684Z,96884.81
2023-05-15T19:18:06.241Z,96896.63
2023-05-15T19:20:38.032Z,96910.22
2023-05-15T19:23:06.547Z,96927.69
2023-05-15T19:25:34.535Z,96934.59
2023-05-15T19:28:03.676Z,96927.59
2023-05-15T19:30:32.193Z,96910.13
2023-05-15T19:33:01.913Z,96889.94
2023-05-15T19:35:29.942Z,96878.91
2023-05-15T19:37:59.138Z,96878.00
2023-05-15T19:40:27.268Z,96870.44
2023-05-15T19:43:00.072Z,96858.94
2023-05-15T19:45:31.529Z,96852.00
2023-05-15T19:48:05.589Z,96845.75
2023-05-15T19:50:33.593Z,96841.38
2023-05-15T19:53:01.660Z,96841.91
2023-05-15T19:55:29.579Z,96846.97
2023-05-15T19:57:58.544Z,96842.97
2023-05-15T20:00:32.399Z,96834.28
2023-05-15T20:03:21.422Z,96830.69
2023-05-15T20:05:49.636Z,96842.94
2023-05-15T20:08:17.933Z,96849.66
2023-05-15T20:10:45.987Z,96849.13
2023-05-15T20:13:22.383Z,96865.44
2023-05-15T20:16:01.026Z,96863.38
2023-05-15T20:18:45.030Z,96860.38
2023-05-15T20:21:14.422Z,96859.53
2023-05-15T20:23:42.799Z,96869.03
2023-05-15T20:26:13.684Z,96877.84
2023-05-15T20:28:44.381Z,96879.53
2023-05-15T20:31:19.132Z,96877.44
2023-05-15T20:33:48.766Z,96870.41
2023-05-15T20:36:16.847Z,96879.75
2023-05-15T20:38:45.330Z,96876.13
2023-05-15T20:41:16.765Z,96877.13
2023-05-15T20:43:47.211Z,96872.03
2023-05-15T20:46:15.444Z,96875.22
2023-05-15T20:48:46.843Z,96875.25
2023-05-15T20:51:18.932Z,96868.78
2023-05-15T20:56:41.419Z,96855.31
2023-05-15T20:59:09.859Z,96849.84
2023-05-15T21:01:38.199Z,96856.69
2023-05-15T21:04:06.522Z,96847.72
2023-05-15T21:06:35.939Z,96842.44
2023-05-15T21:09:09.587Z,96847.75
2023-05-15T21:11:37.476Z,96844.13
2023-05-15T21:14:05.435Z,96843.28
2023-05-15T21:16:33.421Z,96838.88
2023-05-15T21:19:01.550Z,96842.03
2023-05-15T21:21:29.665Z,96840.50
2023-05-15T21:24:01.473Z,96829.50
2023-05-15T21:26:29.292Z,96838.47
2023-05-15T21:28:59.167Z,96841.91
2023-05-15T21:31:27.557Z,96837.66
2023-05-15T21:33:56.796Z,96850.72
2023-05-15T21:36:24.637Z,96851.56
2023-05-15T21:38:52.434Z,96863.72
2023-05-15T21:41:22.180Z,96867.78
2023-05-15T21:43:50.031Z,96867.38
2023-05-15T21:46:17.978Z,96869.78
2023-05-15T21:48:46.393Z,96865.34
2023-05-15T21:51:14.206Z,96888.22
2023-05-15T21:53:42.049Z,96889.91
2023-05-15T21:56:09.856Z,96893.31
2023-05-15T21:58:39.130Z,96906.69
2023-05-15T22:01:07.237Z,96922.34
2023-05-15T22:03:35.185Z,96909.00
2023-05-15T22:06:03.169Z,96915.44
2023-05-15T22:08:31.211Z,96910.88
2023-05-15T22:21:39.804Z,96902.47
2023-05-15T22:24:07.882Z,96907.63
2023-05-15T22:26:35.735Z,96923.66
2023-05-15T22:29:03.904Z,96926.13
2023-05-15T22:31:31.810Z,96922.34
2023-05-15T22:33:59.796Z,96916.03
2023-05-15T22:36:27.682Z,96911.78
2023-05-15T22:38:57.501Z,96921.72
2023-05-15T22:41:25.628Z,96932.88
2023-05-15T22:43:53.444Z,96940.34
2023-05-15T22:46:21.446Z,96938.94
2023-05-15T22:48:49.523Z,96938.75
2023-05-15T22:51:17.661Z,96947.31
2023-05-15T22:53:45.463Z,96949.75
2023-05-15T22:56:14.895Z,96951.53
2023-05-15T22:58:42.836Z,96961.06
2023-05-15T23:01:10.986Z,96974.97
2023-05-15T23:03:38.962Z,96989.97
2023-05-15T23:06:06.951Z,96988.78
2023-05-15T23:08:34.778Z,97001.00
2023-05-15T23:11:02.696Z,97002.06
2023-05-15T23:13:32.161Z,96999.03
2023-05-15T23:16:00.132Z,96997.50
2023-05-15T23:18:28.149Z,97008.75
2023-05-15T23:20:56.052Z,97014.56
2023-05-15T23:23:23.949Z,97008.38
2023-05-15T23:25:51.796Z,97023.59
2023-05-15T23:28:19.776Z,97030.91
2023-05-15T23:30:49.083Z,97053.63
2023-05-15T23:33:17.336Z,97066.84
2023-05-15T23:35:45.276Z,97076.34
2023-05-15T23:38:13.233Z,97095.75
2023-05-15T23:40:41.115Z,97098.69
2023-05-15T23:43:08.957Z,97102.44
2023-05-15T23:45:36.904Z,97105.84
2023-05-15T23:48:06.606Z,97097.00
2023-05-15T23:50:34.610Z,97115.94
2023-05-15T23:53:02.574Z,97133.00
2023-05-15T23:55:30.446Z,97151.75
2023-05-15T23:57:58.902Z,97160.75
